sensor_id;sensor_type;location;lat;lon;timestamp;temperature;humidity
28763;DHT22;15918;51.270;6.522;2023-04-03T00:01:04;9.70;58.40
28763;DHT22;15918;51.270;6.522;2023-04-03T00:03:30;9.70;58.40
28763;DHT22;15918;51.270;6.522;2023-04-03T00:05:55;9.60;58.40
28763;DHT22;15918;51.270;6.522;2023-04-03T00:08:21;9.60;58.40
28763;DHT22;15918;51.270;6.522;2023-04-03T00:10:47;9.60;58.40
28763;DHT22;15918;51.270;6.522;2023-04-03T00:13:13;9.60;58.40
28763;DHT22;15918;51.270;6.522;2023-04-03T00:15:39;9.60;58.40
28763;DHT22;15918;51.270;6.522;2023-04-03T00:18:05;9.60;58.40
28763;DHT22;15918;51.270;6.522;2023-04-03T00:20:31;9.60;58.40
28763;DHT22;15918;51.270;6.522;2023-04-03T00:22:57;9.50;58.30
28763;DHT22;15918;51.270;6.522;2023-04-03T00:25:23;9.50;58.30
28763;DHT22;15918;51.270;6.522;2023-04-03T00:27:48;9.50;58.30
28763;DHT22;15918;51.270;6.522;2023-04-03T00:30:16;9.50;58.40
28763;DHT22;15918;51.270;6.522;2023-04-03T00:32:42;9.50;58.40
28763;DHT22;15918;51.270;6.522;2023-04-03T00:35:08;9.50;58.40
28763;DHT22;15918;51.270;6.522;2023-04-03T00:37:34;9.50;58.30
28763;DHT22;15918;51.270;6.522;2023-04-03T00:40:00;9.50;58.40
28763;DHT22;15918;51.270;6.522;2023-04-03T00:42:25;9.40;58.30
28763;DHT22;15918;51.270;6.522;2023-04-03T00:47:23;9.40;58.30
28763;DHT22;15918;51.270;6.522;2023-04-03T00:49:50;9.40;58.30
28763;DHT22;15918;51.270;6.522;2023-04-03T00:52:21;9.40;58.30
28763;DHT22;15918;51.270;6.522;2023-04-03T00:54:49;9.40;58.30
28763;DHT22;15918;51.270;6.522;2023-04-03T00:57:16;9.40;58.30
28763;DHT22;15918;51.270;6.522;2023-04-03T00:59:46;9.40;58.30
28763;DHT22;15918;51.270;6.522;2023-04-03T01:02:13;9.40;58.20
28763;DHT22;15918;51.270;6.522;2023-04-03T01:04:42;9.30;58.20
28763;DHT22;15918;51.270;6.522;2023-04-03T01:07:26;9.30;58.20
28763;DHT22;15918;51.270;6.522;2023-04-03T01:09:56;9.30;58.20
28763;DHT22;15918;51.270;6.522;2023-04-03T01:12:30;9.30;58.30
28763;DHT22;15918;51.270;6.522;2023-04-03T01:14:58;9.30;58.30
28763;DHT22;15918;51.270;6.522;2023-04-03T01:17:43;9.30;58.30
28763;DHT22;15918;51.270;6.522;2023-04-03T01:23:22;9.20;58.30
28763;DHT22;15918;51.270;6.522;2023-04-03T01:25:55;9.20;58.20
28763;DHT22;15918;51.270;6.522;2023-04-03T01:31:10;9.20;58.30
28763;DHT22;15918;51.270;6.522;2023-04-03T01:33:38;9.20;58.30
28763;DHT22;15918;51.270;6.522;2023-04-03T01:36:04;9.20;58.40
28763;DHT22;15918;51.270;6.522;2023-04-03T01:38:30;9.20;58.40
28763;DHT22;15918;51.270;6.522;2023-04-03T01:40:55;9.20;58.40
28763;DHT22;15918;51.270;6.522;2023-04-03T01:43:21;9.10;58.40
28763;DHT22;15918;51.270;6.522;2023-04-03T01:45:46;9.10;58.40
28763;DHT22;15918;51.270;6.522;2023-04-03T01:48:14;9.10;58.40
28763;DHT22;15918;51.270;6.522;2023-04-03T01:50:40;9.10;58.40
28763;DHT22;15918;51.270;6.522;2023-04-03T01:53:06;9.10;58.40
28763;DHT22;15918;51.270;6.522;2023-04-03T01:55:32;9.10;58.40
28763;DHT22;15918;51.270;6.522;2023-04-03T01:57:57;9.10;58.50
28763;DHT22;15918;51.270;6.522;2023-04-03T02:00:23;9.10;58.40
28763;DHT22;15918;51.270;6.522;2023-04-03T02:02:49;9.00;58.50
28763;DHT22;15918;51.270;6.522;2023-04-03T02:05:14;9.00;58.40
28763;DHT22;15918;51.270;6.522;2023-04-03T02:07:40;9.00;58.50
28763;DHT22;15918;51.270;6.522;2023-04-03T02:10:06;9.00;58.50
28763;DHT22;15918;51.270;6.522;2023-04-03T02:12:32;9.00;58.50
28763;DHT22;15918;51.270;6.522;2023-04-03T02:14:57;9.00;58.60
28763;DHT22;15918;51.270;6.522;2023-04-03T02:17:23;9.00;58.60
28763;DHT22;15918;51.270;6.522;2023-04-03T02:19:48;9.00;58.60
28763;DHT22;15918;51.270;6.522;2023-04-03T02:22:14;9.00;58.70
28763;DHT22;15918;51.270;6.522;2023-04-03T02:24:40;8.90;58.80
28763;DHT22;15918;51.270;6.522;2023-04-03T02:27:06;8.90;58.80
28763;DHT22;15918;51.270;6.522;2023-04-03T02:29:32;8.90;58.80
28763;DHT22;15918;51.270;6.522;2023-04-03T02:31:58;8.90;59.00
28763;DHT22;15918;51.270;6.522;2023-04-03T02:34:23;8.90;59.10
28763;DHT22;15918;51.270;6.522;2023-04-03T02:36:49;8.90;59.10
28763;DHT22;15918;51.270;6.522;2023-04-03T02:39:14;8.90;59.10
28763;DHT22;15918;51.270;6.522;2023-04-03T02:41:41;8.90;59.10
28763;DHT22;15918;51.270;6.522;2023-04-03T02:44:09;8.80;59.20
28763;DHT22;15918;51.270;6.522;2023-04-03T02:46:35;8.90;59.20
28763;DHT22;15918;51.270;6.522;2023-04-03T02:49:00;8.80;59.20
28763;DHT22;15918;51.270;6.522;2023-04-03T02:51:26;8.90;59.30
28763;DHT22;15918;51.270;6.522;2023-04-03T02:53:51;8.80;59.30
28763;DHT22;15918;51.270;6.522;2023-04-03T02:56:17;8.80;59.30
28763;DHT22;15918;51.270;6.522;2023-04-03T02:58:44;8.80;59.30
28763;DHT22;15918;51.270;6.522;2023-04-03T03:01:10;8.80;59.40
28763;DHT22;15918;51.270;6.522;2023-04-03T03:03:36;8.80;59.40
28763;DHT22;15918;51.270;6.522;2023-04-03T03:06:06;8.80;59.40
28763;DHT22;15918;51.270;6.522;2023-04-03T03:08:33;8.80;59.40
28763;DHT22;15918;51.270;6.522;2023-04-03T03:10:58;8.70;59.40
28763;DHT22;15918;51.270;6.522;2023-04-03T03:13:24;8.70;59.30
28763;DHT22;15918;51.270;6.522;2023-04-03T03:15:50;8.70;59.30
28763;DHT22;15918;51.270;6.522;2023-04-03T03:18:16;8.70;59.30
28763;DHT22;15918;51.270;6.522;2023-04-03T03:20:41;8.70;59.40
28763;DHT22;15918;51.270;6.522;2023-04-03T03:23:07;8.70;59.40
28763;DHT22;15918;51.270;6.522;2023-04-03T03:25:33;8.70;59.40
28763;DHT22;15918;51.270;6.522;2023-04-03T03:27:58;8.70;59.40
28763;DHT22;15918;51.270;6.522;2023-04-03T03:30:24;8.70;59.40
28763;DHT22;15918;51.270;6.522;2023-04-03T03:32:49;8.70;59.40
28763;DHT22;15918;51.270;6.522;2023-04-03T03:35:15;8.70;59.40
28763;DHT22;15918;51.270;6.522;2023-04-03T03:37:40;8.70;59.40
28763;DHT22;15918;51.270;6.522;2023-04-03T03:40:06;8.70;59.40
28763;DHT22;15918;51.270;6.522;2023-04-03T03:42:32;8.70;59.50
28763;DHT22;15918;51.270;6.522;2023-04-03T03:44:58;8.70;59.50
28763;DHT22;15918;51.270;6.522;2023-04-03T03:47:23;8.60;59.40
28763;DHT22;15918;51.270;6.522;2023-04-03T03:49:49;8.60;59.40
28763;DHT22;15918;51.270;6.522;2023-04-03T03:52:15;8.60;59.40
28763;DHT22;15918;51.270;6.522;2023-04-03T03:54:40;8.70;59.50
28763;DHT22;15918;51.270;6.522;2023-04-03T03:57:06;8.60;59.40
28763;DHT22;15918;51.270;6.522;2023-04-03T03:59:32;8.60;59.30
28763;DHT22;15918;51.270;6.522;2023-04-03T04:01:57;8.50;59.30
28763;DHT22;15918;51.270;6.522;2023-04-03T04:04:23;8.60;59.50
28763;DHT22;15918;51.270;6.522;2023-04-03T04:06:48;8.60;59.40
28763;DHT22;15918;51.270;6.522;2023-04-03T04:09:14;8.50;59.30
28763;DHT22;15918;51.270;6.522;2023-04-03T04:11:40;8.50;59.30
28763;DHT22;15918;51.270;6.522;2023-04-03T04:14:06;8.50;59.30
28763;DHT22;15918;51.270;6.522;2023-04-03T04:16:32;8.50;59.30
28763;DHT22;15918;51.270;6.522;2023-04-03T04:18:58;8.50;59.30
28763;DHT22;15918;51.270;6.522;2023-04-03T04:21:23;8.50;59.40
28763;DHT22;15918;51.270;6.522;2023-04-03T04:23:49;8.50;59.40
28763;DHT22;15918;51.270;6.522;2023-04-03T04:26:14;8.50;59.40
28763;DHT22;15918;51.270;6.522;2023-04-03T04:28:40;8.50;59.40
28763;DHT22;15918;51.270;6.522;2023-04-03T04:31:06;8.50;59.40
28763;DHT22;15918;51.270;6.522;2023-04-03T04:33:31;8.50;59.50
28763;DHT22;15918;51.270;6.522;2023-04-03T04:35:57;8.50;59.50
28763;DHT22;15918;51.270;6.522;2023-04-03T04:38:22;8.50;59.50
28763;DHT22;15918;51.270;6.522;2023-04-03T04:40:48;8.50;59.40
28763;DHT22;15918;51.270;6.522;2023-04-03T04:43:14;8.40;59.40
28763;DHT22;15918;51.270;6.522;2023-04-03T04:45:40;8.40;59.40
28763;DHT22;15918;51.270;6.522;2023-04-03T04:48:06;8.40;59.40
28763;DHT22;15918;51.270;6.522;2023-04-03T04:50:31;8.40;59.40
28763;DHT22;15918;51.270;6.522;2023-04-03T04:52:57;8.40;59.30
28763;DHT22;15918;51.270;6.522;2023-04-03T04:55:22;8.40;59.40
28763;DHT22;15918;51.270;6.522;2023-04-03T04:57:48;8.40;59.40
28763;DHT22;15918;51.270;6.522;2023-04-03T05:00:14;8.40;59.40
28763;DHT22;15918;51.270;6.522;2023-04-03T05:02:40;8.40;59.40
28763;DHT22;15918;51.270;6.522;2023-04-03T05:05:06;8.40;59.30
28763;DHT22;15918;51.270;6.522;2023-04-03T05:07:32;8.40;59.40
28763;DHT22;15918;51.270;6.522;2023-04-03T05:09:57;8.40;59.40
28763;DHT22;15918;51.270;6.522;2023-04-03T05:12:23;8.30;59.30
28763;DHT22;15918;51.270;6.522;2023-04-03T05:14:49;8.30;59.30
28763;DHT22;15918;51.270;6.522;2023-04-03T05:17:15;8.40;59.30
28763;DHT22;15918;51.270;6.522;2023-04-03T05:19:40;8.30;59.30
28763;DHT22;15918;51.270;6.522;2023-04-03T05:22:06;8.30;59.10
28763;DHT22;15918;51.270;6.522;2023-04-03T05:24:31;8.30;59.20
28763;DHT22;15918;51.270;6.522;2023-04-03T05:26:58;8.30;59.20
28763;DHT22;15918;51.270;6.522;2023-04-03T05:29:24;8.30;59.30
28763;DHT22;15918;51.270;6.522;2023-04-03T05:31:50;8.30;59.30
28763;DHT22;15918;51.270;6.522;2023-04-03T05:34:16;8.30;59.30
28763;DHT22;15918;51.270;6.522;2023-04-03T05:36:41;8.30;59.30
28763;DHT22;15918;51.270;6.522;2023-04-03T05:39:08;8.30;59.40
28763;DHT22;15918;51.270;6.522;2023-04-03T05:41:33;8.30;59.40
28763;DHT22;15918;51.270;6.522;2023-04-03T05:43:59;8.20;59.30
28763;DHT22;15918;51.270;6.522;2023-04-03T05:46:25;8.20;59.30
28763;DHT22;15918;51.270;6.522;2023-04-03T05:48:51;8.30;59.40
28763;DHT22;15918;51.270;6.522;2023-04-03T05:51:24;8.20;59.30
28763;DHT22;15918;51.270;6.522;2023-04-03T05:53:56;8.20;59.30
28763;DHT22;15918;51.270;6.522;2023-04-03T05:56:24;8.20;59.30
28763;DHT22;15918;51.270;6.522;2023-04-03T05:58:50;8.20;59.40
28763;DHT22;15918;51.270;6.522;2023-04-03T06:01:16;8.20;59.30
28763;DHT22;15918;51.270;6.522;2023-04-03T06:03:42;8.20;59.40
28763;DHT22;15918;51.270;6.522;2023-04-03T06:06:07;8.20;59.30
28763;DHT22;15918;51.270;6.522;2023-04-03T06:08:33;8.30;59.40
28763;DHT22;15918;51.270;6.522;2023-04-03T06:11:00;8.30;59.40
28763;DHT22;15918;51.270;6.522;2023-04-03T06:13:27;8.30;59.40
28763;DHT22;15918;51.270;6.522;2023-04-03T06:15:52;8.30;59.50
28763;DHT22;15918;51.270;6.522;2023-04-03T06:18:18;8.30;59.50
28763;DHT22;15918;51.270;6.522;2023-04-03T06:20:44;8.30;59.50
28763;DHT22;15918;51.270;6.522;2023-04-03T06:23:09;8.40;59.60
28763;DHT22;15918;51.270;6.522;2023-04-03T06:25:36;8.40;59.60
28763;DHT22;15918;51.270;6.522;2023-04-03T06:28:01;8.40;59.50
28763;DHT22;15918;51.270;6.522;2023-04-03T06:30:27;8.40;59.50
28763;DHT22;15918;51.270;6.522;2023-04-03T06:32:52;8.40;59.40
28763;DHT22;15918;51.270;6.522;2023-04-03T06:35:18;8.50;59.40
28763;DHT22;15918;51.270;6.522;2023-04-03T06:37:44;8.50;59.40
28763;DHT22;15918;51.270;6.522;2023-04-03T06:40:18;8.60;59.50
28763;DHT22;15918;51.270;6.522;2023-04-03T06:42:46;8.60;59.40
28763;DHT22;15918;51.270;6.522;2023-04-03T06:45:11;8.60;59.40
28763;DHT22;15918;51.270;6.522;2023-04-03T06:47:37;8.60;59.30
28763;DHT22;15918;51.270;6.522;2023-04-03T06:50:03;8.60;59.20
28763;DHT22;15918;51.270;6.522;2023-04-03T06:52:28;8.60;59.10
28763;DHT22;15918;51.270;6.522;2023-04-03T06:54:54;8.60;59.10
28763;DHT22;15918;51.270;6.522;2023-04-03T06:57:23;8.70;59.20
28763;DHT22;15918;51.270;6.522;2023-04-03T06:59:49;8.70;59.20
28763;DHT22;15918;51.270;6.522;2023-04-03T07:02:15;8.80;59.20
28763;DHT22;15918;51.270;6.522;2023-04-03T07:04:41;8.80;59.10
28763;DHT22;15918;51.270;6.522;2023-04-03T07:07:06;8.80;59.00
28763;DHT22;15918;51.270;6.522;2023-04-03T07:09:32;8.80;59.00
28763;DHT22;15918;51.270;6.522;2023-04-03T07:11:58;8.80;59.00
28763;DHT22;15918;51.270;6.522;2023-04-03T07:14:23;8.90;59.00
28763;DHT22;15918;51.270;6.522;2023-04-03T07:16:49;8.90;58.90
28763;DHT22;15918;51.270;6.522;2023-04-03T07:19:15;9.00;58.90
28763;DHT22;15918;51.270;6.522;2023-04-03T07:21:41;9.00;59.50
28763;DHT22;15918;51.270;6.522;2023-04-03T07:24:08;9.00;58.80
28763;DHT22;15918;51.270;6.522;2023-04-03T07:26:34;9.00;58.70
28763;DHT22;15918;51.270;6.522;2023-04-03T07:29:00;9.00;58.70
28763;DHT22;15918;51.270;6.522;2023-04-03T07:31:26;9.00;58.70
28763;DHT22;15918;51.270;6.522;2023-04-03T07:33:51;9.10;58.80
28763;DHT22;15918;51.270;6.522;2023-04-03T07:36:20;9.00;58.60
28763;DHT22;15918;51.270;6.522;2023-04-03T07:38:47;9.10;58.70
28763;DHT22;15918;51.270;6.522;2023-04-03T07:41:15;9.10;58.60
28763;DHT22;15918;51.270;6.522;2023-04-03T07:43:41;9.10;58.50
28763;DHT22;15918;51.270;6.522;2023-04-03T07:46:07;9.20;58.50
28763;DHT22;15918;51.270;6.522;2023-04-03T07:48:34;9.20;58.50
28763;DHT22;15918;51.270;6.522;2023-04-03T07:51:02;9.20;58.40
28763;DHT22;15918;51.270;6.522;2023-04-03T07:53:28;9.20;58.40
28763;DHT22;15918;51.270;6.522;2023-04-03T07:55:53;9.20;58.20
28763;DHT22;15918;51.270;6.522;2023-04-03T07:58:21;9.30;58.20
28763;DHT22;15918;51.270;6.522;2023-04-03T08:00:47;9.30;58.10
28763;DHT22;15918;51.270;6.522;2023-04-03T08:03:14;9.30;58.00
28763;DHT22;15918;51.270;6.522;2023-04-03T08:05:43;9.30;58.00
28763;DHT22;15918;51.270;6.522;2023-04-03T08:08:11;9.30;57.90
28763;DHT22;15918;51.270;6.522;2023-04-03T08:10:37;9.40;57.90
28763;DHT22;15918;51.270;6.522;2023-04-03T08:13:03;9.40;57.80
28763;DHT22;15918;51.270;6.522;2023-04-03T08:15:30;9.40;57.80
28763;DHT22;15918;51.270;6.522;2023-04-03T08:17:56;9.40;57.70
28763;DHT22;15918;51.270;6.522;2023-04-03T08:20:21;9.50;57.80
28763;DHT22;15918;51.270;6.522;2023-04-03T08:22:47;9.50;57.80
28763;DHT22;15918;51.270;6.522;2023-04-03T08:25:13;9.50;57.60
28763;DHT22;15918;51.270;6.522;2023-04-03T08:27:39;9.50;57.50
28763;DHT22;15918;51.270;6.522;2023-04-03T08:30:05;9.60;57.40
28763;DHT22;15918;51.270;6.522;2023-04-03T08:32:33;9.60;57.30
28763;DHT22;15918;51.270;6.522;2023-04-03T08:34:58;9.60;57.30
28763;DHT22;15918;51.270;6.522;2023-04-03T08:37:24;9.60;57.20
28763;DHT22;15918;51.270;6.522;2023-04-03T08:39:50;9.60;57.00
28763;DHT22;15918;51.270;6.522;2023-04-03T08:42:43;9.70;56.80
28763;DHT22;15918;51.270;6.522;2023-04-03T08:45:16;9.70;56.70
28763;DHT22;15918;51.270;6.522;2023-04-03T08:47:46;9.70;56.60
28763;DHT22;15918;51.270;6.522;2023-04-03T08:50:19;9.70;56.30
28763;DHT22;15918;51.270;6.522;2023-04-03T08:52:51;9.70;56.00
28763;DHT22;15918;51.270;6.522;2023-04-03T08:55:24;9.70;56.00
28763;DHT22;15918;51.270;6.522;2023-04-03T08:58:04;9.80;55.70
28763;DHT22;15918;51.270;6.522;2023-04-03T09:03:12;9.80;55.50
28763;DHT22;15918;51.270;6.522;2023-04-03T09:10:44;9.90;54.60
28763;DHT22;15918;51.270;6.522;2023-04-03T09:15:47;9.90;54.00
28763;DHT22;15918;51.270;6.522;2023-04-03T09:23:54;9.90;53.20
28763;DHT22;15918;51.270;6.522;2023-04-03T09:26:34;9.90;53.20
28763;DHT22;15918;51.270;6.522;2023-04-03T09:29:06;9.90;52.60
28763;DHT22;15918;51.270;6.522;2023-04-03T09:31:40;9.90;52.00
28763;DHT22;15918;51.270;6.522;2023-04-03T09:34:15;9.90;51.60
28763;DHT22;15918;51.270;6.522;2023-04-03T09:36:45;9.90;51.70
28763;DHT22;15918;51.270;6.522;2023-04-03T09:39:16;9.90;51.30
28763;DHT22;15918;51.270;6.522;2023-04-03T09:41:54;9.90;50.90
28763;DHT22;15918;51.270;6.522;2023-04-03T09:44:26;10.00;51.00
28763;DHT22;15918;51.270;6.522;2023-04-03T09:46:52;10.00;50.90
28763;DHT22;15918;51.270;6.522;2023-04-03T09:49:18;10.00;51.10
28763;DHT22;15918;51.270;6.522;2023-04-03T09:51:45;10.00;50.90
28763;DHT22;15918;51.270;6.522;2023-04-03T09:54:35;10.10;51.00
28763;DHT22;15918;51.270;6.522;2023-04-03T09:57:12;10.10;51.30
28763;DHT22;15918;51.270;6.522;2023-04-03T10:00:02;10.10;50.60
28763;DHT22;15918;51.270;6.522;2023-04-03T10:02:36;10.10;49.90
28763;DHT22;15918;51.270;6.522;2023-04-03T10:05:04;10.10;50.10
28763;DHT22;15918;51.270;6.522;2023-04-03T10:07:32;10.10;50.00
28763;DHT22;15918;51.270;6.522;2023-04-03T10:10:00;10.20;50.00
28763;DHT22;15918;51.270;6.522;2023-04-03T10:12:27;10.20;49.80
28763;DHT22;15918;51.270;6.522;2023-04-03T10:14:54;10.20;49.50
28763;DHT22;15918;51.270;6.522;2023-04-03T10:25:20;10.30;49.70
28763;DHT22;15918;51.270;6.522;2023-04-03T10:27:58;10.30;49.60
28763;DHT22;15918;51.270;6.522;2023-04-03T10:33:20;10.30;49.20
28763;DHT22;15918;51.270;6.522;2023-04-03T10:36:02;10.40;49.20
28763;DHT22;15918;51.270;6.522;2023-04-03T10:44:16;10.40;48.70
28763;DHT22;15918;51.270;6.522;2023-04-03T10:47:02;10.40;49.10
28763;DHT22;15918;51.270;6.522;2023-04-03T10:55:37;10.50;49.40
28763;DHT22;15918;51.270;6.522;2023-04-03T10:58:18;10.60;49.60
28763;DHT22;15918;51.270;6.522;2023-04-03T11:00:48;10.60;49.70
28763;DHT22;15918;51.270;6.522;2023-04-03T11:03:32;10.60;49.70
28763;DHT22;15918;51.270;6.522;2023-04-03T11:06:02;10.60;49.80
28763;DHT22;15918;51.270;6.522;2023-04-03T11:11:26;10.70;49.60
28763;DHT22;15918;51.270;6.522;2023-04-03T11:14:01;10.70;49.70
28763;DHT22;15918;51.270;6.522;2023-04-03T11:16:30;10.70;49.40
28763;DHT22;15918;51.270;6.522;2023-04-03T11:18:56;10.80;49.30
28763;DHT22;15918;51.270;6.522;2023-04-03T11:21:39;10.80;49.30
28763;DHT22;15918;51.270;6.522;2023-04-03T11:24:17;10.80;49.40
28763;DHT22;15918;51.270;6.522;2023-04-03T11:26:45;10.80;49.20
28763;DHT22;15918;51.270;6.522;2023-04-03T11:29:15;10.90;49.40
28763;DHT22;15918;51.270;6.522;2023-04-03T11:34:26;10.90;49.20
28763;DHT22;15918;51.270;6.522;2023-04-03T11:36:57;10.90;49.20
28763;DHT22;15918;51.270;6.522;2023-04-03T11:39:35;11.00;49.30
28763;DHT22;15918;51.270;6.522;2023-04-03T11:42:36;11.00;48.80
28763;DHT22;15918;51.270;6.522;2023-04-03T11:47:50;11.00;48.60
28763;DHT22;15918;51.270;6.522;2023-04-03T11:50:46;11.00;48.70
28763;DHT22;15918;51.270;6.522;2023-04-03T11:58:21;11.00;47.80
28763;DHT22;15918;51.270;6.522;2023-04-03T12:00:54;11.00;48.10
28763;DHT22;15918;51.270;6.522;2023-04-03T12:35:15;11.30;48.80
28763;DHT22;15918;51.270;6.522;2023-04-03T12:38:16;11.30;48.80
28763;DHT22;15918;51.270;6.522;2023-04-03T12:46:23;11.30;48.90
28763;DHT22;15918;51.270;6.522;2023-04-03T12:48:57;11.30;48.80
28763;DHT22;15918;51.270;6.522;2023-04-03T12:54:01;11.40;48.80
28763;DHT22;15918;51.270;6.522;2023-04-03T12:56:29;11.40;48.60
28763;DHT22;15918;51.270;6.522;2023-04-03T12:59:23;11.40;48.70
28763;DHT22;15918;51.270;6.522;2023-04-03T13:01:57;11.40;48.60
28763;DHT22;15918;51.270;6.522;2023-04-03T13:04:23;11.40;48.60
28763;DHT22;15918;51.270;6.522;2023-04-03T13:06:49;11.40;48.40
28763;DHT22;15918;51.270;6.522;2023-04-03T13:09:26;11.40;48.00
28763;DHT22;15918;51.270;6.522;2023-04-03T13:12:12;11.40;47.70
28763;DHT22;15918;51.270;6.522;2023-04-03T13:14:39;11.40;47.90
28763;DHT22;15918;51.270;6.522;2023-04-03T13:17:12;11.40;47.90
28763;DHT22;15918;51.270;6.522;2023-04-03T13:19:40;11.50;48.00
28763;DHT22;15918;51.270;6.522;2023-04-03T13:22:32;11.50;48.10
28763;DHT22;15918;51.270;6.522;2023-04-03T13:25:03;11.50;47.80
28763;DHT22;15918;51.270;6.522;2023-04-03T13:27:32;11.50;48.10
28763;DHT22;15918;51.270;6.522;2023-04-03T13:29:59;11.50;48.00
28763;DHT22;15918;51.270;6.522;2023-04-03T13:32:27;11.50;48.00
28763;DHT22;15918;51.270;6.522;2023-04-03T13:34:53;11.50;48.00
28763;DHT22;15918;51.270;6.522;2023-04-03T13:37:25;11.60;47.70
28763;DHT22;15918;51.270;6.522;2023-04-03T13:42:36;11.60;47.50
28763;DHT22;15918;51.270;6.522;2023-04-03T13:47:44;11.50;47.30
28763;DHT22;15918;51.270;6.522;2023-04-03T13:50:24;11.60;47.60
28763;DHT22;15918;51.270;6.522;2023-04-03T13:53:08;11.60;47.50
28763;DHT22;15918;51.270;6.522;2023-04-03T13:55:56;11.60;47.30
28763;DHT22;15918;51.270;6.522;2023-04-03T13:58:28;11.60;47.20
28763;DHT22;15918;51.270;6.522;2023-04-03T14:03:41;11.50;47.30
28763;DHT22;15918;51.270;6.522;2023-04-03T14:06:10;11.60;47.10
28763;DHT22;15918;51.270;6.522;2023-04-03T14:08:36;11.50;47.10
28763;DHT22;15918;51.270;6.522;2023-04-03T14:11:02;11.50;47.30
28763;DHT22;15918;51.270;6.522;2023-04-03T14:13:30;11.50;47.20
28763;DHT22;15918;51.270;6.522;2023-04-03T14:15:56;11.50;47.30
28763;DHT22;15918;51.270;6.522;2023-04-03T14:18:22;11.50;47.30
28763;DHT22;15918;51.270;6.522;2023-04-03T14:20:48;11.50;47.20
28763;DHT22;15918;51.270;6.522;2023-04-03T14:23:14;11.60;47.20
28763;DHT22;15918;51.270;6.522;2023-04-03T14:25:41;11.50;47.10
28763;DHT22;15918;51.270;6.522;2023-04-03T14:28:18;11.50;47.30
28763;DHT22;15918;51.270;6.522;2023-04-03T14:30:45;11.60;47.40
28763;DHT22;15918;51.270;6.522;2023-04-03T14:33:18;11.50;47.40
28763;DHT22;15918;51.270;6.522;2023-04-03T14:35:44;11.60;47.30
28763;DHT22;15918;51.270;6.522;2023-04-03T14:38:30;11.50;47.10
28763;DHT22;15918;51.270;6.522;2023-04-03T14:40:57;11.50;47.20
28763;DHT22;15918;51.270;6.522;2023-04-03T14:43:23;11.50;47.50
28763;DHT22;15918;51.270;6.522;2023-04-03T14:45:49;11.50;47.60
28763;DHT22;15918;51.270;6.522;2023-04-03T14:48:24;11.50;47.50
28763;DHT22;15918;51.270;6.522;2023-04-03T14:50:50;11.50;47.20
28763;DHT22;15918;51.270;6.522;2023-04-03T14:53:17;11.50;47.30
28763;DHT22;15918;51.270;6.522;2023-04-03T14:55:45;11.50;47.20
28763;DHT22;15918;51.270;6.522;2023-04-03T14:58:16;11.50;47.10
28763;DHT22;15918;51.270;6.522;2023-04-03T15:00:43;11.50;47.00
28763;DHT22;15918;51.270;6.522;2023-04-03T15:03:17;11.50;47.10
28763;DHT22;15918;51.270;6.522;2023-04-03T15:05:47;11.50;47.10
28763;DHT22;15918;51.270;6.522;2023-04-03T15:08:22;11.50;46.90
28763;DHT22;15918;51.270;6.522;2023-04-03T15:10:49;11.50;47.00
28763;DHT22;15918;51.270;6.522;2023-04-03T15:13:15;11.50;47.20
28763;DHT22;15918;51.270;6.522;2023-04-03T15:15:41;11.50;47.20
28763;DHT22;15918;51.270;6.522;2023-04-03T15:18:12;11.40;46.80
28763;DHT22;15918;51.270;6.522;2023-04-03T15:20:38;11.40;46.70
28763;DHT22;15918;51.270;6.522;2023-04-03T15:23:04;11.40;46.80
28763;DHT22;15918;51.270;6.522;2023-04-03T15:25:32;11.40;47.10
28763;DHT22;15918;51.270;6.522;2023-04-03T15:27:57;11.40;47.10
28763;DHT22;15918;51.270;6.522;2023-04-03T15:30:23;11.40;47.10
28763;DHT22;15918;51.270;6.522;2023-04-03T15:32:49;11.50;47.20
28763;DHT22;15918;51.270;6.522;2023-04-03T15:35:15;11.40;47.10
28763;DHT22;15918;51.270;6.522;2023-04-03T15:37:40;11.40;47.10
28763;DHT22;15918;51.270;6.522;2023-04-03T15:40:06;11.40;47.10
28763;DHT22;15918;51.270;6.522;2023-04-03T15:42:32;11.40;47.30
28763;DHT22;15918;51.270;6.522;2023-04-03T15:44:58;11.40;47.40
28763;DHT22;15918;51.270;6.522;2023-04-03T15:47:25;11.40;47.50
28763;DHT22;15918;51.270;6.522;2023-04-03T15:49:51;11.40;47.50
28763;DHT22;15918;51.270;6.522;2023-04-03T15:52:16;11.40;47.30
28763;DHT22;15918;51.270;6.522;2023-04-03T15:54:42;11.40;47.20
28763;DHT22;15918;51.270;6.522;2023-04-03T15:57:07;11.30;47.30
28763;DHT22;15918;51.270;6.522;2023-04-03T15:59:33;11.30;47.30
28763;DHT22;15918;51.270;6.522;2023-04-03T16:01:59;11.30;47.30
28763;DHT22;15918;51.270;6.522;2023-04-03T16:04:27;11.30;47.30
28763;DHT22;15918;51.270;6.522;2023-04-03T16:06:53;11.30;47.30
28763;DHT22;15918;51.270;6.522;2023-04-03T16:09:19;11.30;47.10
28763;DHT22;15918;51.270;6.522;2023-04-03T16:11:44;11.30;47.10
28763;DHT22;15918;51.270;6.522;2023-04-03T16:14:10;11.30;47.20
28763;DHT22;15918;51.270;6.522;2023-04-03T16:16:36;11.30;47.20
28763;DHT22;15918;51.270;6.522;2023-04-03T16:19:03;11.30;47.20
28763;DHT22;15918;51.270;6.522;2023-04-03T16:21:29;11.30;47.30
28763;DHT22;15918;51.270;6.522;2023-04-03T16:23:57;11.30;47.30
28763;DHT22;15918;51.270;6.522;2023-04-03T16:26:23;11.30;47.30
28763;DHT22;15918;51.270;6.522;2023-04-03T16:28:49;11.30;47.30
28763;DHT22;15918;51.270;6.522;2023-04-03T16:31:14;11.30;47.40
28763;DHT22;15918;51.270;6.522;2023-04-03T16:33:40;11.20;47.50
28763;DHT22;15918;51.270;6.522;2023-04-03T16:36:06;11.30;47.50
28763;DHT22;15918;51.270;6.522;2023-04-03T16:38:32;11.30;47.40
28763;DHT22;15918;51.270;6.522;2023-04-03T16:40:58;11.20;47.20
28763;DHT22;15918;51.270;6.522;2023-04-03T16:43:27;11.20;47.20
28763;DHT22;15918;51.270;6.522;2023-04-03T16:45:53;11.20;47.20
28763;DHT22;15918;51.270;6.522;2023-04-03T16:48:18;11.20;47.10
28763;DHT22;15918;51.270;6.522;2023-04-03T16:50:47;11.30;47.20
28763;DHT22;15918;51.270;6.522;2023-04-03T16:53:23;11.20;47.00
28763;DHT22;15918;51.270;6.522;2023-04-03T16:55:49;11.20;47.20
28763;DHT22;15918;51.270;6.522;2023-04-03T16:58:15;11.20;47.30
28763;DHT22;15918;51.270;6.522;2023-04-03T17:00:41;11.10;47.30
28763;DHT22;15918;51.270;6.522;2023-04-03T17:03:07;11.10;47.10
28763;DHT22;15918;51.270;6.522;2023-04-03T17:05:33;11.10;47.10
28763;DHT22;15918;51.270;6.522;2023-04-03T17:07:59;11.10;47.10
28763;DHT22;15918;51.270;6.522;2023-04-03T17:10:26;11.10;47.10
28763;DHT22;15918;51.270;6.522;2023-04-03T17:12:52;11.10;47.20
28763;DHT22;15918;51.270;6.522;2023-04-03T17:15:18;11.10;47.10
28763;DHT22;15918;51.270;6.522;2023-04-03T17:17:46;11.10;47.70
28763;DHT22;15918;51.270;6.522;2023-04-03T17:20:12;11.10;47.20
28763;DHT22;15918;51.270;6.522;2023-04-03T17:22:37;11.10;47.10
28763;DHT22;15918;51.270;6.522;2023-04-03T17:25:03;11.00;47.00
28763;DHT22;15918;51.270;6.522;2023-04-03T17:27:29;11.00;46.90
28763;DHT22;15918;51.270;6.522;2023-04-03T17:29:55;11.00;46.90
28763;DHT22;15918;51.270;6.522;2023-04-03T17:32:20;11.00;46.80
28763;DHT22;15918;51.270;6.522;2023-04-03T17:34:46;11.00;46.90